createdAt,value
2022-11-09T00:01:14.090Z,100615.03
2022-11-09T00:03:37.664Z,100614.75
2022-11-09T00:06:02.173Z,100608.22
2022-11-09T00:08:25.941Z,100614.31
2022-11-09T00:10:49.444Z,100611.19
2022-11-09T00:13:13.119Z,100609.63
2022-11-09T00:15:36.627Z,100614.19
2022-11-09T00:18:03.875Z,100608.38
2022-11-09T00:20:27.784Z,100613.16
2022-11-09T00:22:51.867Z,100610.75
2022-11-09T00:25:15.481Z,100612.06
2022-11-09T00:27:39.040Z,100612.47
2022-11-09T00:30:02.613Z,100610.91
2022-11-09T00:32:27.925Z,100617.56
2022-11-09T00:34:53.136Z,100614.72
2022-11-09T00:37:16.732Z,100609.22
2022-11-09T00:39:40.321Z,100607.78
2022-11-09T00:42:03.984Z,100598.56
2022-11-09T00:44:27.485Z,100594.91
2022-11-09T00:46:51.222Z,100593.59
2022-11-09T00:49:14.833Z,100591.19
2022-11-09T00:51:39.933Z,100586.66
2022-11-09T00:54:03.755Z,100587.66
2022-11-09T00:56:27.478Z,100587.50
2022-11-09T00:58:55.797Z,100585.25
2022-11-09T01:01:19.818Z,100583.97
2022-11-09T01:03:43.926Z,100585.50
2022-11-09T01:06:08.406Z,100583.66
2022-11-09T01:08:34.314Z,100585.25
2022-11-09T01:10:57.991Z,100593.59
2022-11-09T01:13:21.993Z,100593.03
2022-11-09T01:15:48.329Z,100592.47
2022-11-09T01:18:12.479Z,100582.84
2022-11-09T01:20:36.085Z,100583.41
2022-11-09T01:22:59.627Z,100573.31
2022-11-09T01:25:27.989Z,100570.22
2022-11-09T01:27:52.183Z,100567.09
2022-11-09T01:30:15.998Z,100569.63
2022-11-09T01:32:39.538Z,100563.13
2022-11-09T01:35:03.139Z,100567.09
2022-11-09T01:37:27.694Z,100561.44
2022-11-09T01:39:51.306Z,100563.00
2022-11-09T01:42:16.730Z,100573.06
2022-11-09T01:44:40.451Z,100571.91
2022-11-09T01:47:08.489Z,100575.91
2022-11-09T01:49:41.941Z,100578.56
2022-11-09T01:52:09.237Z,100572.19
2022-11-09T01:54:37.773Z,100563.13
2022-11-09T01:57:06.592Z,100565.13
2022-11-09T01:59:35.489Z,100570.94
2022-11-09T02:02:01.306Z,100572.19
2022-11-09T02:04:28.318Z,100566.78
2022-11-09T02:06:52.315Z,100558.88
2022-11-09T02:09:25.090Z,100549.25
2022-11-09T02:11:48.709Z,100540.44
2022-11-09T02:14:13.294Z,100537.19
2022-11-09T02:16:39.194Z,100544.97
2022-11-09T02:19:03.158Z,100537.75
2022-11-09T02:21:31.328Z,100542.16
2022-11-09T02:23:55.143Z,100537.88
2022-11-09T02:26:28.022Z,100536.72
2022-11-09T02:28:55.402Z,100544.13
2022-11-09T02:31:19.877Z,100542.53
2022-11-09T02:33:53.999Z,100540.56
2022-11-09T02:36:18.013Z,100542.13
2022-11-09T02:38:43.330Z,100532.47
2022-11-09T02:41:09.393Z,100524.91
2022-11-09T02:43:33.426Z,100521.66
2022-11-09T02:45:57.047Z,100528.03
2022-11-09T02:48:21.382Z,100531.09
2022-11-09T02:50:45.019Z,100539.75
2022-11-09T02:53:08.625Z,100534.66
2022-11-09T02:55:36.713Z,100526.59
2022-11-09T02:58:00.389Z,100533.25
2022-11-09T03:00:24.106Z,100530.13
2022-11-09T03:02:48.137Z,100530.72
2022-11-09T03:05:12.475Z,100530.13
2022-11-09T03:07:39.054Z,100527.31
2022-11-09T03:10:02.692Z,100524.44
2022-11-09T03:12:30.737Z,100527.31
2022-11-09T03:15:03.036Z,100523.47
2022-11-09T03:17:26.879Z,100515.69
2022-11-09T03:19:50.753Z,100517.38
2022-11-09T03:22:14.910Z,100518.56
2022-11-09T03:24:42.010Z,100517.41
2022-11-09T03:27:06.006Z,100523.53
2022-11-09T03:29:30.993Z,100521.53
2022-11-09T03:31:54.610Z,100519.84
2022-11-09T03:34:18.246Z,100527.09
2022-11-09T03:36:41.871Z,100535.16
2022-11-09T03:39:05.549Z,100526.69
2022-11-09T03:41:29.782Z,100540.41
2022-11-09T03:43:53.310Z,100536.88
2022-11-09T03:46:18.326Z,100540.13
2022-11-09T03:48:41.840Z,100544.66
2022-11-09T03:51:05.531Z,100548.63
2022-11-09T03:53:29.084Z,100549.50
2022-11-09T03:55:52.696Z,100540.41
2022-11-09T03:58:16.269Z,100548.78
2022-11-09T04:00:39.920Z,100552.06
2022-11-09T04:03:04.953Z,100550.91
2022-11-09T04:05:28.787Z,100554.44
2022-11-09T04:07:56.441Z,100557.03
2022-11-09T04:10:21.054Z,100551.50
2022-11-09T04:12:44.662Z,100560.84
2022-11-09T04:15:09.259Z,100544.44
2022-11-09T04:17:32.900Z,100546.66
2022-11-09T04:19:57.880Z,100553.47
2022-11-09T04:22:21.490Z,100553.34
2022-11-09T04:24:45.095Z,100549.34
2022-11-09T04:27:08.866Z,100550.50
2022-11-09T04:29:32.463Z,100545.84
2022-11-09T04:31:56.037Z,100541.59
2022-11-09T04:34:19.877Z,100543.41
2022-11-09T04:36:44.873Z,100550.94
2022-11-09T04:39:08.587Z,100540.72
2022-11-09T04:41:32.103Z,100549.97
2022-11-09T04:43:55.729Z,100548.94
2022-11-09T04:46:19.243Z,100545.41
2022-11-09T04:48:43.961Z,100554.88
2022-11-09T04:51:10.447Z,100542.16
2022-11-09T04:53:36.187Z,100532.38
2022-11-09T04:56:00.373Z,100539.31
2022-11-09T04:58:25.223Z,100542.56
2022-11-09T05:00:49.885Z,100553.91
2022-11-09T05:03:13.514Z,100549.25
2022-11-09T05:05:44.041Z,100544.44
2022-11-09T05:08:10.907Z,100551.78
2022-11-09T05:10:36.660Z,100557.75
2022-11-09T05:13:00.717Z,100556.88
2022-11-09T05:15:24.224Z,100560.28
2022-11-09T05:17:48.190Z,100552.94
2022-11-09T05:20:13.311Z,100545.41
2022-11-09T05:22:59.336Z,100549.25
2022-11-09T05:25:23.001Z,100559.59
2022-11-09T05:27:47.963Z,100555.34
2022-11-09T05:30:13.089Z,100559.72
2022-11-09T05:32:40.286Z,100559.28
2022-11-09T05:35:03.886Z,100557.47
2022-11-09T05:37:27.381Z,100560.56
2022-11-09T05:39:51.102Z,100558.84
2022-11-09T05:42:14.627Z,100570.50
2022-11-09T05:44:39.610Z,100567.09
2022-11-09T05:47:03.165Z,100567.38
2022-11-09T05:49:26.734Z,100559.44
2022-11-09T05:51:50.282Z,100548.09
2022-11-09T05:54:14.167Z,100553.47
2022-11-09T05:56:37.735Z,100563.38
2022-11-09T05:59:01.370Z,100570.75
2022-11-09T06:01:26.349Z,100567.38
2022-11-09T06:03:49.953Z,100566.38
2022-11-09T06:06:15.878Z,100573.34
2022-11-09T06:08:39.745Z,100574.88
2022-11-09T06:11:05.565Z,100567.50
2022-11-09T06:13:29.778Z,100561.25
2022-11-09T06:15:55.949Z,100566.75
2022-11-09T06:18:21.119Z,100568.91
2022-11-09T06:20:44.627Z,100586.91
2022-11-09T06:23:08.275Z,100576.97
2022-11-09T06:25:33.120Z,100579.81
2022-11-09T06:27:58.350Z,100586.19
2022-11-09T06:30:22.149Z,100585.91
2022-11-09T06:32:45.737Z,100592.84
2022-11-09T06:35:11.154Z,100590.59
2022-11-09T06:37:34.913Z,100596.84
2022-11-09T06:39:58.477Z,100593.31
2022-11-09T06:42:22.206Z,100597.72
2022-11-09T06:44:45.730Z,100593.56
2022-11-09T06:47:09.371Z,100600.09
2022-11-09T06:49:32.906Z,100599.56
2022-11-09T06:51:57.890Z,100603.25
2022-11-09T06:54:21.429Z,100606.34
2022-11-09T06:56:45.057Z,100608.50
2022-11-09T06:59:08.981Z,100614.28
2022-11-09T07:01:32.687Z,100609.34
2022-11-09T07:03:56.326Z,100612.31
2022-11-09T07:06:19.943Z,100613.44
2022-11-09T07:08:44.880Z,100618.44
2022-11-09T07:11:10.738Z,100613.16
2022-11-09T07:13:34.402Z,100610.91
2022-11-09T07:15:58.166Z,100614.31
2022-11-09T07:18:21.777Z,100609.22
2022-11-09T07:20:45.562Z,100602.09
2022-11-09T07:23:09.279Z,100594.31
2022-11-09T07:25:34.647Z,100587.75
2022-11-09T07:28:04.972Z,100588.59
2022-11-09T07:30:28.757Z,100581.09
2022-11-09T07:33:09.573Z,100572.03
2022-11-09T07:35:33.551Z,100559.44
2022-11-09T07:38:02.230Z,100567.94
2022-11-09T07:40:25.969Z,100591.72
2022-11-09T07:42:50.882Z,100622.66
2022-11-09T07:45:14.473Z,100617.28
2022-11-09T07:47:38.050Z,100611.16
2022-11-09T07:52:25.259Z,100608.75
2022-11-09T07:54:52.187Z,100612.16
2022-11-09T07:57:16.069Z,100612.31
2022-11-09T07:59:41.054Z,100609.63
2022-11-09T08:02:04.595Z,100610.03
2022-11-09T08:04:28.411Z,100622.25
2022-11-09T08:06:54.094Z,100611.00
2022-11-09T08:09:17.870Z,100611.88
2022-11-09T08:11:41.490Z,100617.56
2022-11-09T08:14:05.063Z,100607.88
2022-11-09T08:16:34.862Z,100608.75
2022-11-09T08:19:01.097Z,100607.94
2022-11-09T08:21:24.654Z,100619.25
2022-11-09T08:23:48.227Z,100612.44
2022-11-09T08:26:12.678Z,100620.13
2022-11-09T08:28:36.685Z,100623.09
2022-11-09T08:31:02.756Z,100619.84
2022-11-09T08:33:29.385Z,100614.28
2022-11-09T08:35:53.453Z,100592.47
2022-11-09T08:38:17.303Z,100602.69
2022-11-09T08:40:40.917Z,100611.75
2022-11-09T08:43:07.850Z,100611.16
2022-11-09T08:45:33.939Z,100629.13
2022-11-09T08:48:00.214Z,100632.31
2022-11-09T08:50:25.158Z,100643.94
2022-11-09T08:52:48.771Z,100641.38
2022-11-09T08:55:12.469Z,100648.75
2022-11-09T08:57:36.281Z,100647.66
2022-11-09T08:59:59.905Z,100637.13
2022-11-09T09:02:23.541Z,100640.94
2022-11-09T09:04:47.106Z,100637.81
2022-11-09T09:07:13.379Z,100642.38
2022-11-09T09:09:38.240Z,100634.53
2022-11-09T09:12:02.083Z,100649.56
2022-11-09T09:14:26.645Z,100651.00
2022-11-09T09:16:50.295Z,100640.47
2022-11-09T09:19:13.850Z,100649.84
2022-11-09T09:21:37.453Z,100646.47
2022-11-09T09:24:02.408Z,100646.44
2022-11-09T09:26:26.013Z,100649.34
2022-11-09T09:28:49.563Z,100654.06
2022-11-09T09:31:18.245Z,100659.13
2022-11-09T09:33:42.266Z,100668.59
2022-11-09T09:36:06.680Z,100670.75
2022-11-09T09:38:31.155Z,100669.75
2022-11-09T09:41:01.015Z,100667.28
2022-11-09T09:43:32.612Z,100666.69
2022-11-09T09:45:57.410Z,100675.28
2022-11-09T09:48:30.672Z,100671.91
2022-11-09T09:50:57.592Z,100666.06
2022-11-09T09:53:28.359Z,100663.94
2022-11-09T09:56:05.730Z,100674.66
2022-11-09T09:58:32.002Z,100668.19
2022-11-09T10:00:59.973Z,100689.72
2022-11-09T10:03:23.619Z,100696.28
2022-11-09T10:06:10.144Z,100695.66
2022-11-09T10:08:46.708Z,100700.19
2022-11-09T10:11:23.835Z,100696.25
2022-11-09T10:14:11.201Z,100694.28
2022-11-09T10:16:43.978Z,100682.31
2022-11-09T10:19:31.070Z,100686.38
2022-11-09T10:22:01.990Z,100688.84
2022-11-09T10:24:44.415Z,100673.47
2022-11-09T10:27:29.134Z,100669.03
2022-11-09T10:29:52.898Z,100675.59
2022-11-09T10:32:19.739Z,100678.63
2022-11-09T10:34:55.667Z,100675.22
2022-11-09T10:37:26.134Z,100664.25
2022-11-09T10:39:54.350Z,100657.56
2022-11-09T10:42:38.274Z,100655.63
2022-11-09T10:45:34.318Z,100645.44
2022-11-09T10:48:31.889Z,100646.34
2022-11-09T10:51:43.467Z,100653.22
2022-11-09T10:54:28.593Z,100649.34
2022-11-09T10:57:18.541Z,100637.22
2022-11-09T11:00:02.581Z,100641.69
2022-11-09T11:02:48.276Z,100642.81
2022-11-09T11:05:37.502Z,100637.75
2022-11-09T11:08:30.889Z,100643.53
2022-11-09T11:11:38.068Z,100647.28
2022-11-09T11:14:24.648Z,100641.66
2022-11-09T11:17:23.389Z,100633.13
2022-11-09T11:20:28.075Z,100640.59
2022-11-09T11:23:15.217Z,100621.63
2022-11-09T11:26:16.745Z,100616.38
2022-11-09T11:29:03.437Z,100615.09
2022-11-09T11:31:45.962Z,100623.09
2022-11-09T11:34:57.968Z,100629.63
2022-11-09T11:37:48.463Z,100622.53
2022-11-09T11:40:38.326Z,100622.69
2022-11-09T11:43:39.596Z,100619.38
2022-11-09T11:46:38.483Z,100622.25
2022-11-09T11:50:00.726Z,100608.28
2022-11-09T11:53:01.341Z,100608.25
2022-11-09T11:56:24.078Z,100609.06
2022-11-09T11:59:51.766Z,100599.56
2022-11-09T12:03:18.816Z,100598.63
2022-11-09T12:06:29.892Z,100603.94
2022-11-09T12:09:54.660Z,100603.84
2022-11-09T12:12:45.229Z,100598.59
2022-11-09T12:15:44.335Z,100591.03
2022-11-09T12:18:40.539Z,100590.50
2022-11-09T12:21:33.712Z,100594.03
2022-11-09T12:24:26.310Z,100596.66
2022-11-09T12:27:52.041Z,100582.75
2022-11-09T12:30:49.514Z,100587.16
2022-11-09T12:33:43.930Z,100594.41
2022-11-09T12:36:38.009Z,100584.91
2022-11-09T12:39:28.903Z,100592.84
2022-11-09T12:42:18.683Z,100597.34
2022-11-09T12:45:13.489Z,100600.06
2022-11-09T12:47:59.926Z,100597.34
2022-11-09T12:50:43.282Z,100592.75
2022-11-09T12:53:31.267Z,100589.22
2022-11-09T12:56:20.613Z,100592.63
2022-11-09T12:59:22.725Z,100591.91
2022-11-09T13:02:07.098Z,100594.13
2022-11-09T13:04:58.681Z,100596.00
2022-11-09T13:07:49.746Z,100599.56
2022-11-09T13:10:36.533Z,100598.84
2022-11-09T13:13:24.226Z,100603.97
2022-11-09T13:16:14.522Z,100598.16
2022-11-09T13:18:56.919Z,100603.09
2022-11-09T13:21:40.980Z,100593.78
2022-11-09T13:24:55.766Z,100602.44
2022-11-09T13:27:45.530Z,100588.16
2022-11-09T13:30:43.534Z,100594.94
2022-11-09T13:33:26.913Z,100598.72
2022-11-09T13:36:20.880Z,100603.06
2022-11-09T13:39:39.488Z,100602.94
2022-11-09T13:42:31.880Z,100596.66
2022-11-09T13:45:42.734Z,100602.06
2022-11-09T13:48:42.424Z,100599.56
2022-11-09T13:51:27.069Z,100588.84
2022-11-09T13:54:31.241Z,100596.69
2022-11-09T13:57:14.127Z,100605.63
2022-11-09T13:59:56.932Z,100598.84
2022-11-09T14:02:40.303Z,100610.22
2022-11-09T14:05:31.866Z,100606.97
2022-11-09T14:08:23.882Z,100610.03
2022-11-09T14:11:42.723Z,100611.97
2022-11-09T14:15:09.227Z,100609.06
2022-11-09T14:18:12.509Z,100606.06
2022-11-09T14:21:15.426Z,100602.50
2022-11-09T14:24:04.564Z,100600.44
2022-11-09T14:27:17.024Z,100606.31
2022-11-09T14:30:02.702Z,100601.91
2022-11-09T14:32:51.194Z,100605.31
2022-11-09T14:35:37.066Z,100608.88
2022-11-09T14:38:24.026Z,100617.41
2022-11-09T14:41:06.289Z,100627.16
2022-11-09T14:43:51.067Z,100636.53
2022-11-09T14:46:33.422Z,100636.13
2022-11-09T14:49:15.756Z,100634.09
2022-11-09T14:51:59.488Z,100631.34
2022-11-09T14:54:45.566Z,100632.19
2022-11-09T14:57:28.099Z,100626.88
2022-11-09T15:00:29.753Z,100636.75
2022-11-09T15:03:27.797Z,100635.66
2022-11-09T15:06:13.082Z,100645.44
2022-11-09T15:08:59.642Z,100646.75
2022-11-09T15:11:42.450Z,100644.97
2022-11-09T15:14:29.743Z,100639.72
2022-11-09T15:17:17.935Z,100637.34
2022-11-09T15:20:02.167Z,100643.06
2022-11-09T15:22:52.546Z,100641.59
2022-11-09T15:25:53.314Z,100638.22
2022-11-09T15:28:47.482Z,100639.22
2022-11-09T15:31:29.821Z,100644.75
2022-11-09T15:34:24.864Z,100642.38
2022-11-09T15:37:22.542Z,100637.19
2022-11-09T15:40:10.112Z,100644.34
2022-11-09T15:42:53.832Z,100637.91
2022-11-09T15:45:35.758Z,100637.69
2022-11-09T15:48:17.951Z,100640.16
2022-11-09T15:51:00.631Z,100638.44
2022-11-09T15:53:43.306Z,100642.69
2022-11-09T15:56:26.173Z,100648.22
2022-11-09T15:59:17.622Z,100653.41
2022-11-09T16:01:59.487Z,100659.81
2022-11-09T16:04:42.777Z,100663.38
2022-11-09T16:07:24.968Z,100661.44
2022-11-09T16:10:08.474Z,100656.91
2022-11-09T16:12:53.055Z,100669.09
2022-11-09T16:15:38.095Z,100667.19
2022-11-09T16:18:25.651Z,100671.28
2022-11-09T16:21:09.988Z,100672.44
2022-11-09T16:23:58.060Z,100662.53
2022-11-09T16:26:40.541Z,100666.91
2022-11-09T16:29:24.529Z,100663.78
2022-11-09T16:32:08.005Z,100660.94
2022-11-09T16:35:08.409Z,100666.34
2022-11-09T16:37:55.339Z,100668.34
2022-11-09T16:40:39.592Z,100669.94
2022-11-09T16:43:22.034Z,100677.59
2022-11-09T16:46:04.205Z,100678.31
2022-11-09T16:48:47.605Z,100686.81
2022-11-09T16:51:29.917Z,100682.97
2022-11-09T16:54:11.798Z,100695.19
2022-11-09T16:56:54.858Z,100713.09
2022-11-09T16:59:37.356Z,100733.94
2022-11-09T17:02:19.400Z,100718.75
2022-11-09T17:05:03.204Z,100700.16
2022-11-09T17:07:45.760Z,100696.16
2022-11-09T17:10:28.229Z,100688.50
2022-11-09T17:13:10.561Z,100702.66
2022-11-09T17:15:53.613Z,100715.00
2022-11-09T17:18:35.469Z,100718.03
2022-11-09T17:21:18.761Z,100723.09
2022-11-09T17:24:01.569Z,100726.69
2022-11-09T17:26:43.385Z,100727.38
2022-11-09T17:29:26.481Z,100730.22
2022-11-09T17:32:10.802Z,100729.25
2022-11-09T17:34:53.290Z,100741.03
2022-11-09T17:37:36.940Z,100741.88
2022-11-09T17:40:20.148Z,100740.78
2022-11-09T17:43:02.270Z,100756.81
2022-11-09T17:45:44.357Z,100762.22
2022-11-09T17:48:26.872Z,100756.94
2022-11-09T17:51:10.305Z,100756.50
2022-11-09T17:53:53.950Z,100759.50
2022-11-09T17:56:36.113Z,100758.94
2022-11-09T17:59:18.329Z,100759.63
2022-11-09T18:02:00.732Z,100767.44
2022-11-09T18:04:42.829Z,100765.16
2022-11-09T18:07:25.328Z,100772.84
2022-11-09T18:10:10.342Z,100786.47
2022-11-09T18:12:52.747Z,100798.50
2022-11-09T18:15:37.622Z,100801.22
2022-11-09T18:18:20.864Z,100804.34
2022-11-09T18:21:08.263Z,100813.88
2022-11-09T18:23:50.466Z,100800.81
2022-11-09T18:26:34.331Z,100814.28
2022-11-09T18:29:16.526Z,100806.78
2022-11-09T18:31:58.906Z,100807.19
2022-11-09T18:34:41.367Z,100803.47
2022-11-09T18:37:23.950Z,100811.47
2022-11-09T18:40:07.618Z,100804.34
2022-11-09T18:42:51.169Z,100808.19
2022-11-09T18:45:34.654Z,100808.50
2022-11-09T18:48:17.307Z,100786.59
2022-11-09T18:51:01.036Z,100785.34
2022-11-09T18:53:46.739Z,100786.00
2022-11-09T18:56:28.881Z,100789.41
2022-11-09T18:59:14.075Z,100799.66
2022-11-09T19:01:55.963Z,100798.97
2022-11-09T19:04:38.373Z,100793.00
2022-11-09T19:07:20.611Z,100792.97
2022-11-09T19:10:03.020Z,100795.28
2022-11-09T19:12:45.274Z,100797.81
2022-11-09T19:15:28.659Z,100799.50
2022-11-09T19:18:10.699Z,100795.28
2022-11-09T19:20:52.770Z,100807.78
2022-11-09T19:23:35.104Z,100800.38
2022-11-09T19:26:17.825Z,100807.31
2022-11-09T19:29:00.423Z,100807.06
2022-11-09T19:31:45.902Z,100807.22
2022-11-09T19:34:28.294Z,100815.72
2022-11-09T19:37:10.846Z,100812.03
2022-11-09T19:39:52.945Z,100818.13
2022-11-09T19:42:35.245Z,100825.94
2022-11-09T19:45:17.792Z,100829.91
2022-11-09T19:48:02.870Z,100830.63
2022-11-09T19:50:49.767Z,100838.44
2022-11-09T19:53:32.272Z,100842.63
2022-11-09T19:56:14.513Z,100844.59
2022-11-09T19:58:58.951Z,100841.75
2022-11-09T20:01:41.025Z,100841.72
2022-11-09T20:04:24.831Z,100847.13
2022-11-09T20:07:07.447Z,100841.28
2022-11-09T20:09:49.768Z,100853.63
2022-11-09T20:12:49.614Z,100856.97
2022-11-09T20:15:33.220Z,100859.56
2022-11-09T20:18:15.966Z,100865.34
2022-11-09T20:20:59.797Z,100866.56
2022-11-09T20:23:42.252Z,100869.97
2022-11-09T20:26:25.204Z,100880.22
2022-11-09T20:29:07.620Z,100869.38
2022-11-09T20:31:49.734Z,100879.25
2022-11-09T20:34:32.293Z,100877.53
2022-11-09T20:37:16.525Z,100876.00
2022-11-09T20:39:58.983Z,100878.88
2022-11-09T20:42:41.234Z,100880.53
2022-11-09T20:45:23.280Z,100878.94
2022-11-09T20:48:19.305Z,100878.56
2022-11-09T20:51:09.388Z,100886.16
2022-11-09T20:53:53.909Z,100884.88
2022-11-09T20:56:37.484Z,100887.47
2022-11-09T20:59:19.861Z,100896.03
2022-11-09T21:02:01.870Z,100894.25
2022-11-09T21:04:44.450Z,100900.47
2022-11-09T21:07:26.553Z,100902.03
2022-11-09T21:10:11.162Z,100904.66
2022-11-09T21:12:55.386Z,100906.63
2022-11-09T21:15:37.627Z,100904.31
2022-11-09T21:18:20.155Z,100903.91
2022-11-09T21:21:08.007Z,100908.13
2022-11-09T21:24:07.979Z,100906.88
2022-11-09T21:27:09.045Z,100905.03
2022-11-09T21:29:51.286Z,100908.00
2022-11-09T21:32:33.462Z,100908.25
2022-11-09T21:35:15.741Z,100908.50
2022-11-09T21:37:58.372Z,100913.38
2022-11-09T21:43:24.594Z,100916.16
2022-11-09T21:46:07.323Z,100916.00
2022-11-09T21:48:50.126Z,100916.00
2022-11-09T21:51:32.247Z,100925.06
2022-11-09T21:54:14.919Z,100919.81
2022-11-09T21:56:57.530Z,100919.34
2022-11-09T21:59:40.709Z,100922.88
2022-11-09T22:02:22.710Z,100925.53
2022-11-09T22:05:05.200Z,100924.56
2022-11-09T22:07:47.375Z,100930.00
2022-11-09T22:10:29.565Z,100936.22
2022-11-09T22:13:31.766Z,100940.25
2022-11-09T22:16:15.325Z,100940.81
2022-11-09T22:19:14.911Z,100941.44
2022-11-09T22:21:57.089Z,100945.06
2022-11-09T22:24:39.200Z,100957.78
2022-11-09T22:27:21.437Z,100953.94
2022-11-09T22:30:03.647Z,100955.53
2022-11-09T22:32:47.601Z,100956.25
2022-11-09T22:35:29.799Z,100960.13
2022-11-09T22:38:11.918Z,100972.16
2022-11-09T22:40:54.065Z,100965.03
2022-11-09T22:43:37.618Z,100969.41
2022-11-09T22:46:20.148Z,100967.44
2022-11-09T22:49:03.881Z,100971.28
2022-11-09T22:51:46.310Z,100976.25
2022-11-09T22:54:28.861Z,100991.53
2022-11-09T22:57:11.158Z,100996.69
2022-11-09T22:59:53.230Z,100999.75
2022-11-09T23:02:35.588Z,100998.25
2022-11-09T23:05:18.921Z,101005.13
2022-11-09T23:08:01.452Z,101009.19
2022-11-09T23:10:43.362Z,101001.22
2022-11-09T23:13:26.053Z,101009.53
2022-11-09T23:16:11.635Z,101000.44
2022-11-09T23:18:54.052Z,101009.41
2022-11-09T23:21:38.957Z,101012.91
2022-11-09T23:24:34.867Z,101009.91
2022-11-09T23:27:17.074Z,101014.47
2022-11-09T23:29:59.418Z,101027.34
2022-11-09T23:32:41.798Z,101024.63
2022-11-09T23:35:23.620Z,101022.84
2022-11-09T23:38:07.691Z,101029.13
2022-11-09T23:40:50.710Z,101028.22
2022-11-09T23:43:33.098Z,101031.84
2022-11-09T23:46:16.512Z,101031.72
2022-11-09T23:48:58.870Z,101041.38
2022-11-09T23:51:41.176Z,101052.16
2022-11-09T23:54:24.392Z,101051.56
2022-11-09T23:57:07.045Z,101043.66
2022-11-09T23:59:49.621Z,101051.59
